Time;durP1;ratioP1;P1;durP2;ratioP2;P2;SDS_P1;SDS_P2;PMS_P1;PMS_P2;Temp;Humidity;BMP_temperature;BMP_pressure;BME280_temperature;BME280_humidity;BME280_pressure;Samples;Min_cycle;Max_cycle;Signal;HPM_P1;HPM_P2
2022/04/29 00:02:16;;;;;;;3.83;2.13;;;;;;;;;;4996581;28;20632;-80
2022/04/29 00:04:43;;;;;;;2.50;1.83;;;8.30;99.90;;;;;;5014035;28;20644;-83
2022/04/29 00:07:10;;;;;;;3.47;2.17;;;8.30;99.90;;;;;;5013981;28;20169;-80
2022/04/29 00:09:37;;;;;;;3.13;2.27;;;8.30;99.90;;;;;;5014278;28;20209;-80
2022/04/29 00:12:05;;;;;;;2.17;1.97;;;8.20;99.90;;;;;;5014076;28;20228;-81
2022/04/29 00:14:31;;;;;;;3.73;2.10;;;;;;;;;;5014520;28;20252;-80
2022/04/29 00:16:57;;;;;;;4.17;2.43;;;8.50;99.90;;;;;;5014002;28;20272;-81
2022/04/29 00:19:23;;;;;;;5.30;2.33;;;;;;;;;;5014030;28;20184;-80
2022/04/29 00:21:49;;;;;;;5.13;2.90;;;;;;;;;;4996109;28;20181;-80
2022/04/29 00:24:16;;;;;;;3.07;2.57;;;8.10;99.90;;;;;;5014676;28;20630;-81
2022/04/29 00:26:42;;;;;;;4.90;3.03;;;;;;;;;;5015079;28;20251;-80
2022/04/29 00:29:09;;;;;;;3.17;2.80;;;;;;;;;;5015278;28;20184;-80
2022/04/29 00:31:35;;;;;;;2.77;2.13;;;;;;;;;;5015271;28;20205;-80
2022/04/29 00:34:01;;;;;;;6.50;2.97;;;;;;;;;;5026759;28;20189;-80
2022/04/29 00:36:28;;;;;;;6.17;2.93;;;;;;;;;;5037763;28;20236;-80
2022/04/29 00:38:54;;;;;;;5.10;3.03;;;;;;;;;;5037852;28;20172;-87
2022/04/29 00:41:24;;;;;;;5.03;2.97;;;7.70;99.90;;;;;;5037828;28;20180;-81
2022/04/29 00:44:08;;;;;;;5.10;2.87;;;7.80;99.90;;;;;;5006880;28;20181;-79
2022/04/29 00:46:37;;;;;;;3.10;2.80;;;7.50;99.90;;;;;;5015698;28;20169;-79
2022/04/29 00:49:05;;;;;;;4.50;2.40;;;7.50;99.90;;;;;;5027262;28;20213;-80
2022/04/29 00:51:31;;;;;;;3.30;2.77;;;;;;;;;;5036992;28;20212;-80
2022/04/29 00:53:57;;;;;;;4.50;2.83;;;7.40;99.90;;;;;;5036197;28;20185;-80
2022/04/29 00:56:28;;;;;;;3.40;2.23;;;7.30;99.90;;;;;;5025329;28;20264;-79
2022/04/29 00:59:09;;;;;;;3.03;2.17;;;7.40;99.90;;;;;;5015021;28;20161;-80
2022/04/29 01:01:37;;;;;;;3.70;2.30;;;;;;;;;;5014221;28;20228;-80
2022/04/29 01:04:04;;;;;;;5.37;3.03;;;7.10;99.90;;;;;;4996362;28;20280;-80
2022/04/29 01:06:30;;;;;;;3.30;2.50;;;7.10;99.90;;;;;;5014273;28;20178;-80
2022/04/29 01:08:57;;;;;;;5.23;2.10;;;;;;;;;;4996733;28;20177;-80
2022/04/29 01:11:26;;;;;;;5.33;3.00;;;7.00;99.90;;;;;;5013738;28;20291;-80
2022/04/29 01:13:53;;;;;;;6.13;3.60;;;6.90;99.90;;;;;;5013960;28;20279;-80
2022/04/29 01:16:20;;;;;;;8.93;4.70;;;6.80;99.90;;;;;;4996313;28;20181;-80
2022/04/29 01:18:48;;;;;;;12.20;5.67;;;6.80;99.90;;;;;;5013947;28;20188;-80
2022/04/29 01:21:14;;;;;;;9.47;5.50;;;;;;;;;;5013278;28;20189;-80
2022/04/29 01:23:41;;;;;;;9.60;5.40;;;6.90;99.90;;;;;;5013830;28;20652;-80
2022/04/29 01:26:07;;;;;;;12.43;5.23;;;;;;;;;;4995688;28;20268;-80
2022/04/29 01:28:35;;;;;;;11.30;5.97;;;6.60;99.90;;;;;;5013662;28;20189;-80
2022/04/29 01:31:03;;;;;;;9.73;5.50;;;6.60;99.90;;;;;;5013067;28;20244;-80
2022/04/29 01:33:29;;;;;;;19.07;5.97;;;;;;;;;;5012411;28;20189;-80
2022/04/29 01:35:55;;;;;;;12.87;5.60;;;6.50;99.90;;;;;;5012706;28;20236;-80
2022/04/29 01:38:22;;;;;;;8.40;4.53;;;;;;;;;;5013254;28;20227;-80
2022/04/29 01:40:47;;;;;;;12.47;5.70;;;;;;;;;;5013364;28;20196;-80
2022/04/29 01:43:13;;;;;;;9.53;4.83;;;6.40;99.90;;;;;;5012836;28;20256;-79
2022/04/29 01:45:39;;;;;;;9.63;6.37;;;6.80;99.90;;;;;;5013475;28;20173;-80
2022/04/29 01:48:05;;;;;;;12.93;5.83;;;6.80;99.90;;;;;;5013219;28;20186;-80
2022/04/29 01:50:31;;;;;;;11.33;5.57;;;;;;;;;;4995484;28;20216;-80
2022/04/29 01:52:57;;;;;;;8.27;5.17;;;;;;;;;;5012927;28;20177;-80
2022/04/29 01:55:23;;;;;;;9.30;5.37;;;;;;;;;;4995097;28;20185;-80
2022/04/29 01:57:50;;;;;;;6.00;3.87;;;6.20;99.90;;;;;;5013352;28;20169;-80
2022/04/29 02:00:17;;;;;;;6.53;4.00;;;;;;;;;;5015675;28;20220;-79
2022/04/29 02:02:43;;;;;;;6.03;4.17;;;;;;;;;;5016473;28;20178;-80
2022/04/29 02:05:11;;;;;;;6.93;4.03;;;;;;;;;;5015874;28;20698;-81
2022/04/29 02:07:37;;;;;;;7.37;4.07;;;;;;;;;;5016127;28;20176;-80
2022/04/29 02:10:03;;;;;;;4.83;3.30;;;5.80;99.90;;;;;;4998236;28;20298;-80
2022/04/29 02:12:29;;;;;;;5.27;3.23;;;;;;;;;;5016521;28;20205;-81
2022/04/29 02:14:55;;;;;;;4.70;3.00;;;;;;;;;;5016321;28;20641;-80
2022/04/29 02:17:21;;;;;;;3.67;3.10;;;;;;;;;;5016451;28;20189;-79
2022/04/29 02:19:47;;;;;;;6.03;3.10;;;;;;;;;;5016301;28;20189;-79
2022/04/29 02:22:13;;;;;;;4.50;2.97;;;6.20;99.90;;;;;;5015773;28;20177;-80
2022/04/29 02:24:39;;;;;;;4.33;3.00;;;;;;;;;;5015758;28;20178;-81
2022/04/29 02:27:06;;;;;;;5.53;3.20;;;;;;;;;;5015894;28;20181;-80
2022/04/29 02:29:32;;;;;;;8.27;3.50;;;;;;;;;;5016136;28;20177;-79
2022/04/29 02:31:59;;;;;;;5.00;2.80;;;5.70;99.90;;;;;;4998617;28;20195;-85
2022/04/29 02:34:25;;;;;;;4.93;3.20;;;;;;;;;;5016090;28;20638;-80
2022/04/29 02:36:52;;;;;;;5.17;3.60;;;;;;;;;;5015332;28;20315;-80
2022/04/29 02:39:18;;;;;;;3.73;2.60;;;;;;;;;;5015545;28;20204;-79
2022/04/29 02:41:44;;;;;;;7.97;4.43;;;;;;;;;;5015809;28;20185;-80
2022/04/29 02:44:10;;;;;;;5.47;3.10;;;;;;;;;;4997996;28;20192;-80
2022/04/29 02:47:06;;;;;;;3.57;3.03;;;;;;;;;;5015847;28;20177;-79
2022/04/29 02:49:22;;;;;;;5.00;3.13;;;;;;;;;;5014836;28;20551;-80
2022/04/29 02:51:48;;;;;;;8.47;3.93;;;5.30;99.90;;;;;;5015473;28;20173;-79
2022/04/29 02:54:14;;;;;;;5.10;3.40;;;5.40;99.90;;;;;;4997777;28;20181;-80
2022/04/29 02:56:40;;;;;;;5.77;3.93;;;;;;;;;;5014868;28;20185;-80
2022/04/29 02:59:06;;;;;;;5.90;3.20;;;5.40;99.90;;;;;;4981141;28;20565;-80
2022/04/29 03:01:33;;;;;;;5.53;3.13;;;;;;;;;;4997202;28;20193;-80
2022/04/29 03:03:59;;;;;;;6.00;3.40;;;;;;;;;;4997613;28;20217;-80
2022/04/29 03:06:26;;;;;;;3.60;2.87;;;;;;;;;;4997216;28;20247;-80
2022/04/29 03:08:52;;;;;;;6.23;2.80;;;;;;;;;;5014224;28;20177;-80
2022/04/29 03:11:19;;;;;;;5.83;3.10;;;;;;;;;;5014796;28;20216;-80
2022/04/29 03:13:45;;;;;;;4.00;2.93;;;;;;;;;;5015300;28;20181;-80
2022/04/29 03:16:13;;;;;;;5.47;3.27;;;;;;;;;;4997350;28;20281;-80
2022/04/29 03:18:40;;;;;;;5.60;2.87;;;5.10;99.90;;;;;;5015286;28;20173;-80
2022/04/29 03:21:06;;;;;;;4.03;3.03;;;;;;;;;;5014644;28;20212;-80
2022/04/29 03:23:31;;;;;;;11.37;3.87;;;4.90;99.90;;;;;;5015113;28;20229;-78
2022/04/29 03:25:57;;;;;;;6.27;4.00;;;;;;;;;;4997534;28;20577;-80
2022/04/29 03:28:23;;;;;;;4.87;3.37;;;;;;;;;;4991462;28;20773;-80
2022/04/29 03:30:49;;;;;;;5.33;2.77;;;;;;;;;;4983441;28;20202;-79
2022/04/29 03:33:15;;;;;;;17.77;3.60;;;5.20;99.90;;;;;;4988872;28;20745;-79
2022/04/29 03:35:43;;;;;;;3.73;2.90;;;5.20;99.90;;;;;;4990889;28;20229;-80
2022/04/29 03:38:10;;;;;;;5.07;3.23;;;;;;;;;;4993289;28;20205;-80
2022/04/29 03:40:36;;;;;;;6.40;3.87;;;;;;;;;;4993209;28;20276;-80
2022/04/29 03:43:01;;;;;;;4.07;3.43;;;5.30;99.90;;;;;;4982475;28;20696;-80
2022/04/29 03:45:28;;;;;;;5.13;3.70;;;;;;;;;;4972698;28;20190;-80
2022/04/29 03:47:57;;;;;;;7.47;4.43;;;;;;;;;;4987115;28;20212;-80
2022/04/29 03:50:23;;;;;;;7.27;4.00;;;5.30;99.90;;;;;;4975871;28;20209;-80
2022/04/29 03:52:52;;;;;;;5.27;2.87;;;5.30;99.90;;;;;;4981086;28;20198;-80
2022/04/29 03:55:20;;;;;;;6.50;3.60;;;5.40;99.90;;;;;;4972939;28;20197;-81
2022/04/29 03:57:46;;;;;;;7.27;3.67;;;;;;;;;;4973283;28;20190;-81
2022/04/29 04:00:13;;;;;;;5.80;3.53;;;5.60;99.90;;;;;;4972895;28;20304;-80
2022/04/29 04:02:39;;;;;;;8.93;5.63;;;;;;;;;;4955861;28;20190;-79
2022/04/29 04:05:06;;;;;;;6.40;4.33;;;6.10;99.90;;;;;;4973363;28;20191;-80
2022/04/29 04:07:32;;;;;;;8.33;4.93;;;;;;;;;;4974960;28;20182;-79
2022/04/29 04:09:58;;;;;;;10.50;5.27;;;;;;;;;;4975368;28;20209;-79
2022/04/29 04:12:24;;;;;;;9.60;5.67;;;;;;;;;;4974211;28;20198;-79
2022/04/29 04:14:50;;;;;;;6.93;4.53;;;;;;;;;;4972902;28;20245;-81
2022/04/29 04:17:17;;;;;;;7.43;4.83;;;;;;;;;;4955438;28;20202;-80
2022/04/29 04:19:43;;;;;;;13.43;5.53;;;;;;;;;;4973060;28;20190;-80
2022/04/29 04:22:10;;;;;;;8.23;4.93;;;;;;;;;;4974510;28;20273;-80
2022/04/29 04:24:36;;;;;;;7.83;4.97;;;;;;;;;;4985030;28;20925;-83
2022/04/29 04:27:01;;;;;;;9.43;4.90;;;6.70;99.90;;;;;;4991916;28;20213;-81
2022/04/29 04:29:27;;;;;;;11.43;5.80;;;6.80;99.90;;;;;;4991377;28;20196;-79
2022/04/29 04:31:53;;;;;;;12.83;5.10;;;;;;;;;;4974071;28;20198;-80
2022/04/29 04:37:07;;;;;;;8.50;5.10;;;7.80;99.90;;;;;;4992044;28;20709;-80
2022/04/29 04:39:33;;;;;;;7.43;4.33;;;;;;;;;;4974271;28;20189;-80
2022/04/29 04:41:58;;;;;;;5.90;3.60;;;7.70;99.90;;;;;;4991193;28;20207;-81
2022/04/29 04:44:24;;;;;;;5.17;3.40;;;;;;;;;;4974341;28;20721;-80
2022/04/29 04:46:50;;;;;;;7.00;4.63;;;8.40;99.90;;;;;;4991729;28;20990;-81
2022/04/29 04:49:16;;;;;;;7.13;4.33;;;;;;;;;;4974226;28;20190;-81
2022/04/29 04:51:42;;;;;;;7.67;4.47;;;;;;;;;;4991838;28;20213;-80
2022/04/29 04:54:08;;;;;;;5.63;3.77;;;;;;;;;;4991955;28;20197;-81
2022/04/29 04:56:34;;;;;;;4.67;3.30;;;;;;;;;;4991840;28;20702;-81
2022/04/29 04:59:00;;;;;;;4.40;3.20;;;;;;;;;;4992189;28;20224;-82
2022/04/29 05:01:26;;;;;;;4.57;2.73;;;;;;;;;;4992766;28;20186;-81
2022/04/29 05:03:52;;;;;;;4.27;2.60;;;8.80;99.90;;;;;;4993657;28;20193;-81
2022/04/29 05:06:18;;;;;;;4.27;2.73;;;;;;;;;;4975878;28;20189;-81
2022/04/29 05:08:44;;;;;;;3.87;2.57;;;;;;;;;;4992913;28;20182;-81
2022/04/29 05:11:09;;;;;;;5.00;2.30;;;8.90;99.90;;;;;;4992925;28;20209;-81
2022/04/29 05:13:35;;;;;;;3.17;2.37;;;;;;;;;;4992774;28;20197;-81
2022/04/29 05:16:01;;;;;;;3.80;2.50;;;8.90;99.90;;;;;;4992810;28;20241;-82
2022/04/29 05:18:27;;;;;;;3.83;2.13;;;;;;;;;;4992771;28;20229;-82
2022/04/29 05:20:53;;;;;;;3.47;2.33;;;;;;;;;;4993065;28;20201;-83
2022/04/29 05:23:18;;;;;;;5.93;2.77;;;9.20;99.90;;;;;;4997624;28;20189;-82
2022/04/29 05:25:46;;;;;;;4.53;2.77;;;;;;;;;;4975343;28;20225;-82
2022/04/29 05:28:12;;;;;;;10.37;2.97;;;;;;;;;;4975475;28;20182;-81
2022/04/29 05:30:39;;;;;;;4.90;2.77;;;;;;;;;;4974732;28;20206;-82
2022/04/29 05:33:06;;;;;;;4.27;2.87;;;9.90;99.90;;;;;;4994908;28;20660;-82
2022/04/29 05:35:34;;;;;;;4.10;1.93;;;10.00;99.90;;;;;;4994662;28;20686;-82
2022/04/29 05:38:00;;;;;;;5.37;1.83;;;9.80;99.90;;;;;;4977422;28;20178;-83
2022/04/29 05:43:11;;;;;;;3.03;1.90;;;10.40;99.90;;;;;;4993340;28;20182;-82
2022/04/29 05:45:36;;;;;;;2.83;2.10;;;10.10;99.90;;;;;;4995867;28;20182;-82
2022/04/29 05:48:02;;;;;;;4.67;2.67;;;;;;;;;;4999519;28;20267;-82
2022/04/29 05:50:29;;;;;;;1.80;1.70;;;10.90;99.90;;;;;;4963380;28;20218;-82
2022/04/29 05:52:55;;;;;;;3.33;2.33;;;;;;;;;;4997562;28;20178;-81
2022/04/29 05:55:20;;;;;;;3.57;1.90;;;10.60;99.90;;;;;;4980513;28;20186;-82
2022/04/29 05:57:46;;;;;;;2.97;1.50;;;;;;;;;;5011760;28;20192;-82
2022/04/29 06:00:13;;;;;;;2.67;2.10;;;10.80;99.90;;;;;;4998462;28;20634;-82
2022/04/29 06:02:39;;;;;;;2.30;1.90;;;10.90;99.90;;;;;;4994618;28;20281;-82
2022/04/29 06:05:05;;;;;;;1.55;1.40;;;11.10;99.90;;;;;;5004592;28;20200;-83
2022/04/29 06:07:31;;;;;;;4.00;2.10;;;10.90;99.90;;;;;;5002376;28;20189;-83
2022/04/29 06:09:57;;;;;;;2.40;1.80;;;;;;;;;;5004251;28;20546;-82
2022/04/29 06:12:23;;;;;;;1.63;1.50;;;;;;;;;;5003034;28;20270;-83
2022/04/29 06:14:50;;;;;;;2.58;1.80;;;11.50;99.90;;;;;;5003638;28;20475;-83
2022/04/29 06:17:15;;;;;;;1.40;1.20;;;11.20;99.90;;;;;;4961411;28;20201;-83
2022/04/29 06:19:41;;;;;;;2.03;1.30;;;;;;;;;;4978133;28;20177;-83
2022/04/29 06:22:07;;;;;;;1.88;1.27;;;;;;;;;;4998274;28;20193;-83
2022/04/29 06:24:34;;;;;;;4.65;1.83;;;11.70;99.90;;;;;;5000288;28;20189;-83
2022/04/29 06:27:01;;;;;;;2.17;1.40;;;11.90;99.90;;;;;;4996380;28;20190;-84
2022/04/29 06:29:27;;;;;;;1.73;1.40;;;;;;;;;;4977154;28;20527;-84
2022/04/29 06:31:53;;;;;;;7.00;1.50;;;11.60;99.90;;;;;;4981617;28;20193;-82
2022/04/29 06:34:19;;;;;;;1.98;1.77;;;;;;;;;;4996298;28;20649;-82
2022/04/29 06:36:44;;;;;;;3.15;1.70;;;12.70;99.90;;;;;;4977381;28;20235;-83
2022/04/29 06:39:10;;;;;;;1.40;1.30;;;;;;;;;;4979475;28;20551;-83
2022/04/29 06:41:36;;;;;;;0.95;0.88;;;12.20;99.90;;;;;;4962172;28;20186;-83
2022/04/29 06:44:02;;;;;;;1.80;1.48;;;12.90;99.90;;;;;;4977443;28;20182;-82
2022/04/29 06:46:28;;;;;;;2.15;1.35;;;12.90;99.90;;;;;;4997760;28;20246;-84
2022/04/29 06:48:55;;;;;;;1.35;1.13;;;12.70;99.90;;;;;;4998712;28;20178;-84
2022/04/29 06:51:22;;;;;;;1.00;0.90;;;12.80;96.90;;;;;;4999208;28;20230;-82
2022/04/29 06:53:48;;;;;;;1.38;1.13;;;12.90;97.00;;;;;;4998997;28;20171;-82
2022/04/29 06:56:13;;;;;;;2.88;2.15;;;12.80;92.90;;;;;;4982858;28;20260;-82
2022/04/29 06:58:39;;;;;;;2.47;1.55;;;;;;;;;;4947363;28;20194;-83
2022/04/29 07:01:06;;;;;;;1.33;1.20;;;13.50;97.30;;;;;;4996177;28;20239;-82
2022/04/29 07:03:32;;;;;;;1.92;1.33;;;;;;;;;;4997442;28;20174;-86
2022/04/29 07:06:00;;;;;;;2.13;1.15;;;;;;;;;;4998334;28;20185;-85
2022/04/29 07:08:28;;;;;;;2.55;1.40;;;;;;;;;;4983767;28;20193;-87
2022/04/29 07:10:55;;;;;;;1.05;1.02;;;13.00;96.20;;;;;;4977516;28;20199;-82
2022/04/29 07:13:21;;;;;;;1.40;1.30;;;13.20;95.50;;;;;;4976973;28;20265;-84
2022/04/29 07:15:48;;;;;;;2.72;1.20;;;;;;;;;;4975161;28;20289;-84
2022/04/29 07:18:14;;;;;;;1.60;1.50;;;13.60;93.50;;;;;;4978808;28;20182;-85
2022/04/29 07:20:40;;;;;;;0.95;0.95;;;13.40;91.00;;;;;;4968656;28;20190;-83
2022/04/29 07:23:06;;;;;;;8.10;1.27;;;;;;;;;;4958595;28;20527;-83
2022/04/29 07:25:32;;;;;;;1.90;1.70;;;13.60;90.50;;;;;;4975139;28;20230;-84
2022/04/29 07:27:58;;;;;;;3.33;1.58;;;;;;;;;;4976027;28;20536;-84
2022/04/29 07:30:26;;;;;;;2.20;2.00;;;;;;;;;;4974776;28;20730;-84
2022/04/29 07:32:52;;;;;;;2.38;1.55;;;13.30;93.90;;;;;;4975562;28;20198;-83
2022/04/29 07:43:31;;;;;;;1.35;1.25;;;;;;;;;;4995217;28;20181;-86
2022/04/29 07:45:58;;;;;;;1.77;1.40;;;14.00;92.60;;;;;;4994777;28;20182;-83
2022/04/29 07:48:25;;;;;;;1.60;1.27;;;14.00;77.70;;;;;;4994858;28;20249;-83
2022/04/29 07:50:51;;;;;;;1.95;1.60;;;13.70;91.90;;;;;;4994521;28;20717;-83
2022/04/29 07:53:17;;;;;;;1.23;1.05;;;;;;;;;;4977006;28;20190;-83
2022/04/29 07:55:43;;;;;;;1.17;1.08;;;14.10;90.10;;;;;;4993786;28;20543;-83
2022/04/29 07:58:09;;;;;;;1.23;1.13;;;;;;;;;;4976731;28;20205;-82
2022/04/29 08:00:37;;;;;;;1.52;1.40;;;13.70;84.50;;;;;;4992764;28;20236;-83
2022/04/29 08:03:03;;;;;;;1.20;1.10;;;13.70;68.70;;;;;;4977138;28;20225;-83
2022/04/29 08:05:29;;;;;;;1.52;1.05;;;14.20;84.70;;;;;;4994256;28;20178;-83
2022/04/29 08:07:59;;;;;;;2.65;0.88;;;;;;;;;;4993753;28;20184;-83
2022/04/29 08:10:26;;;;;;;1.05;0.95;;;14.00;62.50;;;;;;4994337;28;20256;-84
2022/04/29 08:12:52;;;;;;;1.38;1.10;;;13.70;90.60;;;;;;4976609;28;20209;-84
2022/04/29 08:15:19;;;;;;;1.20;0.95;;;;;;;;;;4960506;28;20599;-82
2022/04/29 08:17:45;;;;;;;1.00;0.90;;;14.80;86.70;;;;;;4977083;28;20178;-84
2022/04/29 08:20:11;;;;;;;2.20;1.45;;;15.00;80.50;;;;;;4994563;28;20231;-83
2022/04/29 08:22:37;;;;;;;1.38;1.17;;;15.30;78.00;;;;;;4993591;28;20174;-84
2022/04/29 08:25:03;;;;;;;0.88;0.88;;;14.40;79.10;;;;;;4960555;28;20197;-83
2022/04/29 08:27:29;;;;;;;2.10;1.65;;;15.10;77.10;;;;;;4976659;28;20539;-83
2022/04/29 08:29:56;;;;;;;1.10;1.00;;;;;;;;;;4976373;28;20209;-83
2022/04/29 08:32:22;;;;;;;1.23;1.10;;;15.00;77.50;;;;;;4976562;28;20192;-83
2022/04/29 08:34:50;;;;;;;1.25;1.02;;;14.80;73.70;;;;;;4976423;28;20174;-84
2022/04/29 08:37:15;;;;;;;1.38;1.00;;;14.90;78.20;;;;;;4992468;28;20229;-83
2022/04/29 08:39:41;;;;;;;1.20;1.15;;;;;;;;;;4993515;28;20185;-83
2022/04/29 08:42:09;;;;;;;1.77;0.90;;;14.80;59.00;;;;;;4993507;28;20184;-84
2022/04/29 08:44:36;;;;;;;0.77;0.77;;;15.50;76.30;;;;;;4993508;28;20186;-83
2022/04/29 08:47:04;;;;;;;2.10;1.13;;;15.30;75.00;;;;;;4994236;28;20268;-83
2022/04/29 08:49:33;;;;;;;0.90;0.85;;;14.60;72.10;;;;;;4993699;28;20220;-83
2022/04/29 08:52:00;;;;;;;1.35;1.00;;;15.00;75.50;;;;;;4993879;28;20271;-84
2022/04/29 09:00:01;;;;;;;2.50;1.33;;;15.00;72.40;;;;;;4996327;28;20260;-83
2022/04/29 09:02:28;;;;;;;2.63;1.20;;;15.60;73.60;;;;;;4996516;28;20181;-82
2022/04/29 09:04:56;;;;;;;1.20;0.95;;;15.60;70.50;;;;;;4977656;28;20182;-82
2022/04/29 09:08:01;;;;;;;1.20;1.00;;;16.30;70.70;;;;;;4996669;28;20657;-82
2022/04/29 09:10:38;;;;;;;1.25;1.15;;;16.00;71.30;;;;;;4999827;28;20210;-83
2022/04/29 09:13:24;;;;;;;1.67;1.05;;;16.00;53.70;;;;;;4982805;28;20245;-82
2022/04/29 09:15:57;;;;;;;0.93;0.88;;;17.00;71.30;;;;;;5000240;28;20184;-82
2022/04/29 09:18:39;;;;;;;1.55;1.00;;;16.60;69.10;;;;;;4980844;28;20574;-83
2022/04/29 09:21:09;;;;;;;1.42;1.15;;;17.00;68.20;;;;;;4997139;28;20176;-82
2022/04/29 09:23:44;;;;;;;1.73;1.30;;;16.20;56.80;;;;;;4997557;28;20182;-82
2022/04/29 09:26:26;;;;;;;1.67;1.17;;;15.00;67.30;;;;;;4997170;28;20252;-82
2022/04/29 09:29:08;;;;;;;3.45;1.27;;;15.10;67.30;;;;;;4997078;28;20204;-83
2022/04/29 09:31:48;;;;;;;1.65;0.98;;;15.20;59.60;;;;;;4997409;28;20209;-82
2022/04/29 09:34:13;;;;;;;1.23;1.13;;;15.50;68.40;;;;;;4997640;28;20177;-82
2022/04/29 09:36:39;;;;;;;1.30;1.20;;;;;;;;;;4972680;28;20241;-82
2022/04/29 09:41:57;;;;;;;1.38;1.10;;;15.00;65.00;;;;;;4996718;28;20202;-82
2022/04/29 09:44:40;;;;;;;2.40;1.15;;;15.00;54.30;;;;;;4997171;28;20193;-82
2022/04/29 09:47:13;;;;;;;5.72;1.38;;;14.90;67.80;;;;;;4996370;28;20532;-83
2022/04/29 09:49:40;;;;;;;1.20;1.10;;;14.90;67.80;;;;;;4979362;28;20213;-82
2022/04/29 09:52:07;;;;;;;2.20;1.20;;;15.30;67.50;;;;;;4996593;28;20268;-84
2022/04/29 09:54:37;;;;;;;2.72;1.80;;;14.80;68.00;;;;;;4996779;28;20188;-82
2022/04/29 09:57:13;;;;;;;2.35;1.50;;;15.60;68.20;;;;;;4996518;28;20220;-84
2022/04/29 09:59:40;;;;;;;3.35;1.55;;;15.60;61.50;;;;;;4996655;28;20173;-83
2022/04/29 10:02:07;;;;;;;1.70;1.42;;;15.60;65.50;;;;;;4996544;28;20178;-83
2022/04/29 10:04:35;;;;;;;1.10;1.00;;;15.50;65.30;;;;;;4996477;28;20220;-84
2022/04/29 10:07:06;;;;;;;1.63;1.40;;;15.40;54.00;;;;;;4978991;28;20252;-83
2022/04/29 10:09:34;;;;;;;2.65;1.10;;;15.70;53.10;;;;;;4996613;28;20190;-84
2022/04/29 10:12:03;;;;;;;1.35;1.05;;;15.50;66.80;;;;;;4978678;28;20214;-84
2022/04/29 10:14:31;;;;;;;1.90;1.08;;;15.80;70.70;;;;;;4998362;28;20233;-84
2022/04/29 10:22:41;;;;;;;1.25;1.02;;;16.50;60.70;;;;;;4997190;28;20177;-84
2022/04/29 10:25:08;;;;;;;2.15;1.20;;;16.50;62.20;;;;;;4996485;28;20189;-83
2022/04/29 10:27:40;;;;;;;2.67;1.27;;;16.60;52.00;;;;;;4979503;28;20256;-84
2022/04/29 10:30:07;;;;;;;2.17;1.10;;;16.10;62.90;;;;;;5014014;28;20198;-85
2022/04/29 10:33:06;;;;;;;1.88;1.20;;;16.90;54.10;;;;;;4985655;28;20170;-83
2022/04/29 10:35:43;;;;;;;1.40;1.30;;;16.00;61.70;;;;;;5016660;28;20254;-83
2022/04/29 10:38:22;;;;;;;2.25;1.20;;;16.70;63.80;;;;;;5009073;28;20184;-83
2022/04/29 10:41:20;;;;;;;2.03;1.30;;;16.20;61.00;;;;;;4993338;28;20553;-83
2022/04/29 10:43:54;;;;;;;4.00;1.67;;;16.40;60.50;;;;;;4978615;28;20247;-81
2022/04/29 10:46:38;;;;;;;1.52;1.23;;;16.60;61.30;;;;;;4995034;28;20177;-82
2022/04/29 10:49:26;;;;;;;2.35;1.23;;;16.20;55.60;;;;;;4995781;28;20204;-84
2022/04/29 10:51:55;;;;;;;2.15;1.25;;;16.40;52.00;;;;;;4962082;28;20243;-83
2022/04/29 10:54:33;;;;;;;1.92;1.30;;;16.60;62.70;;;;;;4996457;28;20273;-83
2022/04/29 10:57:12;;;;;;;2.33;1.60;;;16.70;66.80;;;;;;4995557;28;20173;-83
2022/04/29 11:00:00;;;;;;;2.45;1.50;;;16.70;67.00;;;;;;4995667;28;20162;-83
2022/04/29 11:02:31;;;;;;;1.88;1.50;;;16.30;60.40;;;;;;4995911;28;20714;-83
2022/04/29 11:04:59;;;;;;;1.42;1.17;;;15.90;65.80;;;;;;4995419;28;20256;-83
2022/04/29 11:07:41;;;;;;;1.35;1.17;;;16.10;68.00;;;;;;4962021;28;20192;-83
2022/04/29 11:10:09;;;;;;;1.67;1.23;;;16.20;69.40;;;;;;4994979;28;20193;-83
2022/04/29 11:12:37;;;;;;;1.77;1.40;;;16.10;57.20;;;;;;4962574;28;20280;-82
2022/04/29 11:15:23;;;;;;;2.47;1.42;;;16.20;69.80;;;;;;4994903;28;20529;-83
2022/04/29 11:17:49;;;;;;;1.65;1.33;;;16.20;64.30;;;;;;4995444;28;20238;-84
2022/04/29 11:20:17;;;;;;;2.17;1.35;;;15.70;69.10;;;;;;4960580;28;20190;-84
2022/04/29 11:25:51;;;;;;;1.58;1.38;;;15.40;69.30;;;;;;4994436;28;20189;-83
2022/04/29 11:28:18;;;;;;;1.75;1.15;;;15.50;69.00;;;;;;4994303;28;20182;-83
2022/04/29 11:30:46;;;;;;;2.25;1.42;;;15.80;58.30;;;;;;4976544;28;20573;-83
2022/04/29 11:33:12;;;;;;;2.28;1.75;;;15.60;59.30;;;;;;4977774;28;20189;-83
2022/04/29 11:35:38;;;;;;;1.40;1.10;;;15.80;70.00;;;;;;4975655;28;20224;-83
2022/04/29 11:38:05;;;;;;;1.35;1.13;;;15.70;66.60;;;;;;4985479;28;20174;-83
2022/04/29 11:40:37;;;;;;;2.75;1.60;;;15.80;57.00;;;;;;4980545;28;20205;-83
2022/04/29 11:43:08;;;;;;;3.72;1.80;;;16.00;70.60;;;;;;4994570;28;20166;-82
2022/04/29 11:45:34;;;;;;;3.70;1.52;;;15.90;67.80;;;;;;4977344;28;20276;-83
2022/04/29 11:48:06;;;;;;;2.10;1.50;;;15.80;65.10;;;;;;4994593;28;20649;-83
2022/04/29 11:50:33;;;;;;;1.80;1.50;;;15.50;63.60;;;;;;4995366;28;20202;-82
2022/04/29 11:53:10;;;;;;;3.50;1.95;;;16.00;58.10;;;;;;4997348;28;20186;-83
2022/04/29 11:55:37;;;;;;;1.85;1.52;;;16.20;61.20;;;;;;5002696;28;20177;-82
2022/04/29 11:58:03;;;;;;;1.60;1.27;;;15.60;68.60;;;;;;5003670;28;20177;-83
2022/04/29 12:00:31;;;;;;;1.50;1.08;;;15.80;68.40;;;;;;5006322;28;20185;-83
2022/04/29 12:02:59;;;;;;;2.42;1.80;;;16.00;69.80;;;;;;5006328;28;20206;-82
2022/04/29 12:05:26;;;;;;;3.08;1.60;;;15.70;68.20;;;;;;4985183;28;20205;-82
2022/04/29 12:07:52;;;;;;;2.45;2.03;;;15.70;69.70;;;;;;5003023;28;20234;-81
2022/04/29 12:10:26;;;;;;;1.58;1.30;;;15.00;61.60;;;;;;4983478;28;20228;-81
2022/04/29 12:13:03;;;;;;;1.50;1.35;;;15.30;70.50;;;;;;5001796;28;20627;-81
2022/04/29 12:15:35;;;;;;;2.03;1.67;;;15.10;58.10;;;;;;5000815;28;20276;-82
2022/04/29 12:18:09;;;;;;;3.40;1.63;;;15.60;58.60;;;;;;4985660;28;20281;-84
2022/04/29 12:20:35;;;;;;;2.33;1.60;;;15.00;59.10;;;;;;4996459;28;20561;-83
2022/04/29 12:23:19;;;;;;;1.98;1.40;;;14.90;57.50;;;;;;5002613;28;20185;-83
2022/04/29 12:25:46;;;;;;;1.52;1.20;;;15.10;67.80;;;;;;5004290;28;20169;-81
2022/04/29 12:28:19;;;;;;;1.73;1.55;;;14.80;57.10;;;;;;5014879;28;20173;-81
2022/04/29 12:36:57;;;;;;;5.55;1.60;;;14.50;70.80;;;;;;5013837;28;20238;-81
2022/04/29 12:39:43;;;;;;;1.42;1.30;;;14.70;70.60;;;;;;5014903;28;20252;-81
2022/04/29 12:42:16;;;;;;;1.73;1.30;;;14.10;67.10;;;;;;5017195;28;20642;-81
2022/04/29 12:45:18;;;;;;;2.53;1.70;;;14.40;68.90;;;;;;5000999;28;20207;-81
2022/04/29 12:47:52;;;;;;;2.05;1.42;;;14.60;59.20;;;;;;5018544;28;20196;-82
2022/04/29 12:50:33;;;;;;;2.17;1.40;;;14.40;68.60;;;;;;5029720;28;20192;-83
2022/04/29 12:53:08;;;;;;;2.90;1.77;;;14.40;68.80;;;;;;5037723;28;20162;-81
2022/04/29 12:55:47;;;;;;;2.67;2.10;;;14.70;70.20;;;;;;5037355;28;20172;-82
2022/04/29 12:58:20;;;;;;;2.72;1.85;;;14.60;61.90;;;;;;5036984;28;20166;-81
2022/04/29 13:00:53;;;;;;;2.65;1.73;;;14.50;65.20;;;;;;5019202;28;20200;-81
2022/04/29 13:03:19;;;;;;;1.95;1.48;;;14.50;72.70;;;;;;5018297;28;20192;-81
2022/04/29 13:05:45;;;;;;;1.88;1.73;;;14.70;70.20;;;;;;5035619;28;20181;-80
2022/04/29 13:08:12;;;;;;;4.22;2.00;;;;;;;;;;5018885;28;20192;-84
2022/04/29 13:10:46;;;;;;;3.05;2.00;;;14.80;71.60;;;;;;5019204;28;20209;-82
2022/04/29 13:13:15;;;;;;;2.28;2.08;;;15.30;73.30;;;;;;5018474;28;20166;-81
2022/04/29 13:15:43;;;;;;;3.22;1.77;;;15.00;60.40;;;;;;5015420;28;20228;-81
2022/04/29 13:18:09;;;;;;;3.00;1.98;;;;;;;;;;4997461;28;20228;-82
2022/04/29 13:20:35;;;;;;;2.50;1.85;;;14.70;67.70;;;;;;5014919;28;20204;-80
2022/04/29 13:23:01;;;;;;;1.42;1.30;;;;;;;;;;5014620;28;20162;-82
2022/04/29 13:25:27;;;;;;;4.32;1.90;;;15.40;69.30;;;;;;4996244;28;20610;-81
2022/04/29 13:27:53;;;;;;;2.15;1.52;;;15.10;68.80;;;;;;4996084;28;20565;-81
2022/04/29 13:30:20;;;;;;;2.00;1.10;;;15.30;64.50;;;;;;5013539;28;20251;-81
2022/04/29 13:32:46;;;;;;;2.55;1.80;;;16.10;71.30;;;;;;4993430;28;20252;-83
2022/04/29 13:35:13;;;;;;;4.32;2.30;;;15.70;56.90;;;;;;4993093;28;20190;-82
2022/04/29 13:37:39;;;;;;;2.45;1.60;;;;;;;;;;4993581;28;20637;-82
2022/04/29 13:40:08;;;;;;;1.75;1.58;;;17.10;54.90;;;;;;4993770;28;20208;-82
2022/04/29 13:42:34;;;;;;;2.60;1.60;;;17.40;61.40;;;;;;4975653;28;20182;-82
2022/04/29 13:45:02;;;;;;;1.90;1.60;;;18.00;63.40;;;;;;4992962;28;20261;-82
2022/04/29 13:47:32;;;;;;;2.78;1.88;;;18.60;55.90;;;;;;4993460;28;20174;-82
2022/04/29 13:49:59;;;;;;;3.05;1.70;;;19.10;59.30;;;;;;4992777;28;20662;-84
2022/04/29 13:55:10;;;;;;;5.60;2.58;;;19.40;60.80;;;;;;4995411;28;20321;-82
2022/04/29 13:57:36;;;;;;;2.78;1.80;;;;;;;;;;4995464;28;20269;-83
2022/04/29 14:00:04;;;;;;;3.58;2.42;;;19.80;56.70;;;;;;4983505;28;20182;-81
2022/04/29 14:02:30;;;;;;;2.30;2.05;;;19.30;57.60;;;;;;5002500;28;20281;-82
2022/04/29 14:04:56;;;;;;;2.75;2.08;;;;;;;;;;5000428;28;20186;-82
2022/04/29 14:07:22;;;;;;;1.95;1.65;;;20.00;58.20;;;;;;4966537;28;20652;-82
2022/04/29 14:09:49;;;;;;;2.67;1.88;;;19.60;57.60;;;;;;4996591;28;20216;-83
2022/04/29 14:12:15;;;;;;;2.33;1.70;;;19.80;53.70;;;;;;4979107;28;20205;-84